Time;durP1;ratioP1;P1;durP2;ratioP2;P2;SDS_P1;SDS_P2;PMS_P1;PMS_P2;Temp;Humidity;BMP_temperature;BMP_pressure;BME280_temperature;BME280_humidity;BME280_pressure;Samples;Min_cycle;Max_cycle;Signal;HPM_P1;HPM_P2
2023/01/22 00:00:03;;;;;;;7.75;2.90;;;;;;;;;;4944674;28;87005;-83
2023/01/22 00:02:37;;;;;;;10.18;3.10;;;;;;;;;;4943881;28;87016;-84
2023/01/22 00:05:04;;;;;;;8.35;2.92;;;;;;;;;;4952499;28;87512;-83
2023/01/22 00:07:30;;;;;;;8.95;2.95;;;;;;;;;;4952655;28;87201;-84
2023/01/22 00:09:58;;;;;;;9.40;3.00;;;;;;;;;;4947873;28;87247;-84
2023/01/22 00:12:25;;;;;;;8.23;2.70;;;;;;;;;;4936921;28;88637;-84
2023/01/22 00:14:52;;;;;;;6.30;2.80;;;;;;;;;;4936284;28;88673;-84
2023/01/22 00:17:18;;;;;;;7.80;2.88;;;;;;;;;;4936089;28;87293;-84
2023/01/22 00:19:45;;;;;;;7.35;2.47;;;;;;;;;;4938709;28;86913;-83
2023/01/22 00:22:12;;;;;;;8.13;2.85;;;;;;;;;;4937035;28;87087;-83
2023/01/22 00:24:42;;;;;;;7.65;3.03;;;;;;;;;;4929619;28;90586;-84
2023/01/22 00:27:09;;;;;;;9.00;2.70;;;;;;;;;;4934203;28;86927;-84
2023/01/22 00:29:35;;;;;;;7.50;2.60;;;;;;;;;;4912468;28;90594;-84
2023/01/22 00:32:02;;;;;;;5.93;2.67;;;;;;;;;;4916997;28;86979;-83
2023/01/22 00:34:28;;;;;;;5.55;2.45;;;;;;;;;;4926404;28;87091;-83
2023/01/22 00:36:56;;;;;;;6.38;2.92;;;;;;;;;;4923835;28;90043;-84
2023/01/22 00:39:22;;;;;;;6.55;2.67;;;;;;;;;;4925320;28;89494;-83
2023/01/22 00:41:50;;;;;;;7.82;2.50;;;;;;;;;;4905241;28;89987;-82
2023/01/22 00:44:16;;;;;;;6.20;2.50;;;;;;;;;;4923403;28;87279;-81
2023/01/22 00:46:43;;;;;;;6.10;2.50;;;;;;;;;;4934646;28;87978;-82
2023/01/22 00:49:10;;;;;;;8.32;2.53;;;;;;;;;;4943616;28;89632;-82
2023/01/22 00:51:38;;;;;;;6.78;2.30;;;;;;;;;;4953850;28;88098;-81
2023/01/22 00:54:04;;;;;;;5.57;2.17;;;;;;;;;;4943377;28;90210;-82
2023/01/22 00:56:31;;;;;;;5.20;1.90;;;;;;;;;;4954188;28;86616;-83
2023/01/22 00:58:57;;;;;;;7.20;2.42;;;;;;;;;;4954164;28;90327;-82
2023/01/22 01:01:24;;;;;;;5.22;2.22;;;;;;;;;;4960316;28;88473;-82
2023/01/22 01:03:50;;;;;;;5.40;2.17;;;;;;;;;;4952730;28;89265;-83
2023/01/22 01:06:18;;;;;;;4.68;2.10;;;;;;;;;;4941062;28;88427;-83
2023/01/22 01:08:45;;;;;;;6.25;2.50;;;;;;;;;;4935053;28;89463;-82
2023/01/22 01:11:17;;;;;;;6.90;2.53;;;;;;;;;;4936651;28;87336;-83
2023/01/22 01:13:43;;;;;;;6.07;2.20;;;;;;;;;;4932388;28;88237;-81
2023/01/22 01:16:16;;;;;;;8.55;2.97;;;;;;;;;;4937719;28;88349;-80
2023/01/22 01:18:43;;;;;;;11.52;3.65;;;;;;;;;;4940516;28;88130;-81
2023/01/22 01:21:11;;;;;;;9.57;3.15;;;;;;;;;;4937941;28;87256;-81
2023/01/22 01:23:37;;;;;;;11.40;4.80;;;;;;;;;;4938634;28;89154;-80
2023/01/22 01:26:08;;;;;;;10.18;3.90;;;;;;;;;;4954011;28;87098;-81
2023/01/22 01:28:37;;;;;;;8.88;3.80;;;;;;;;;;4956354;28;86933;-80
2023/01/22 01:31:05;;;;;;;8.43;4.38;;;;;;;;;;4955785;28;89486;-81
2023/01/22 01:33:31;;;;;;;;;;;;;;;;;;4947865;28;89053;-80
2023/01/22 01:36:02;;;;;;;8.55;4.55;;;;;;;;;;4954543;28;100647;-81
2023/01/22 01:38:30;;;;;;;7.75;4.10;;;;;;;;;;4951930;28;90304;-81
2023/01/22 01:40:57;;;;;;;9.15;4.85;;;;;;;;;;4953289;28;86646;-80
2023/01/22 01:43:24;;;;;;;8.40;4.10;;;;;;;;;;4953211;28;87359;-80
2023/01/22 01:45:50;;;;;;;9.52;4.72;;;;;;;;;;4952540;28;88760;-80
2023/01/22 01:48:37;;;;;;;8.60;4.43;;;;;;;;;;4950429;28;87077;-81
2023/01/22 01:51:07;;;;;;;7.88;4.00;;;;;;;;;;4951247;28;90540;-81
2023/01/22 01:53:34;;;;;;;8.27;4.55;;;;;;;;;;4953347;28;86989;-79
2023/01/22 01:56:02;;;;;;;8.38;4.38;;;;;;;;;;4951228;28;88348;-80
2023/01/22 01:58:30;;;;;;;8.70;4.07;;;;;;;;;;4941946;28;86969;-80
2023/01/22 02:01:00;;;;;;;6.78;3.33;;;;;;;;;;4932939;28;87552;-80
2023/01/22 02:03:27;;;;;;;8.32;3.88;;;;;;;;;;4923476;28;88524;-80
2023/01/22 02:05:53;;;;;;;7.93;4.07;;;;;;;;;;4948719;28;87558;-80
2023/01/22 02:08:20;;;;;;;8.18;4.32;;;;;;;;;;4951261;28;89116;-80
2023/01/22 02:10:46;;;;;;;8.30;3.88;;;;;;;;;;4951012;28;88589;-81
2023/01/22 02:13:19;;;;;;;8.80;3.95;;;;;;;;;;4952382;28;88305;-80
2023/01/22 02:15:46;;;;;;;6.90;3.58;;;;;;;;;;4945550;28;86813;-80
2023/01/22 02:18:12;;;;;;;7.88;3.75;;;;;;;;;;4952223;28;88726;-80
2023/01/22 02:20:39;;;;;;;7.57;3.60;;;;;;;;;;4950849;28;86757;-80
2023/01/22 02:23:06;;;;;;;7.93;3.70;;;;;;;;;;4940557;28;90531;-80
2023/01/22 02:25:33;;;;;;;9.50;4.40;;;;;;;;;;4950349;28;87455;-80
2023/01/22 02:28:00;;;;;;;8.00;3.83;;;;;;;;;;4946842;28;89287;-81
2023/01/22 02:30:27;;;;;;;8.23;3.75;;;;;;;;;;4949520;28;89396;-82
2023/01/22 02:32:54;;;;;;;8.20;4.00;;;;;;;;;;4941679;28;89843;-81
2023/01/22 02:35:22;;;;;;;;;;;;;;;;;;4947221;28;88635;-81
2023/01/22 02:37:48;;;;;;;10.20;3.92;;;;;;;;;;4946390;28;106851;-81
2023/01/22 02:40:15;;;;;;;8.40;4.03;;;;;;;;;;4958230;28;88192;-81
2023/01/22 02:42:42;;;;;;;6.60;3.38;;;;;;;;;;4953671;28;90229;-81
2023/01/22 02:45:10;;;;;;;8.38;3.85;;;;;;;;;;4950232;28;89819;-81
2023/01/22 02:47:36;;;;;;;7.68;3.63;;;;;;;;;;4934342;28;89463;-82
2023/01/22 02:50:04;;;;;;;7.63;3.28;;;;;;;;;;4950364;28;89155;-81
2023/01/22 02:52:30;;;;;;;7.03;3.42;;;;;;;;;;4950433;28;89607;-81
2023/01/22 02:54:57;;;;;;;7.47;3.28;;;;;;;;;;4931623;28;87965;-80
2023/01/22 02:57:23;;;;;;;7.65;3.30;;;;;;;;;;4945616;28;90265;-81
2023/01/22 02:59:50;;;;;;;6.85;3.17;;;;;;;;;;4951977;28;87469;-80
2023/01/22 03:02:17;;;;;;;7.53;2.92;;;;;;;;;;4950065;28;90041;-80
2023/01/22 03:04:48;;;;;;;7.30;3.42;;;;;;;;;;4950039;28;94297;-80
2023/01/22 03:07:18;;;;;;;8.18;3.70;;;;;;;;;;4948604;28;88656;-80
2023/01/22 03:09:44;;;;;;;6.93;3.15;;;;;;;;;;4931781;28;87766;-80
2023/01/22 03:12:11;;;;;;;7.70;3.70;;;;;;;;;;4927764;28;87927;-80
2023/01/22 03:22:53;;;;;;;7.60;3.08;;;;;;;;;;4948337;28;90304;-81
2023/01/22 03:25:19;;;;;;;7.38;3.47;;;;;;;;;;4948449;28;89593;-81
2023/01/22 03:30:33;;;;;;;7.13;3.30;;;;;;;;;;4948860;28;89955;-81
2023/01/22 03:32:59;;;;;;;6.50;2.95;;;;;;;;;;4948140;28;88362;-81
2023/01/22 03:35:26;;;;;;;8.10;3.50;;;;;;;;;;4949724;28;89108;-81
2023/01/22 03:38:05;;;;;;;7.60;3.45;;;;;;;;;;4947318;28;94242;-81
2023/01/22 03:40:32;;;;;;;7.13;3.45;;;;;;;;;;4937245;28;89579;-82
2023/01/22 03:42:59;;;;;;;6.68;2.70;;;;;;;;;;4951745;28;89884;-82
2023/01/22 03:45:25;;;;;;;6.22;2.92;;;;;;;;;;4948707;28;91025;-81
2023/01/22 03:47:52;;;;;;;7.90;3.17;;;;;;;;;;4951559;28;90906;-81
2023/01/22 03:50:28;;;;;;;6.60;3.08;;;;;;;;;;4929310;28;88297;-81
2023/01/22 03:52:56;;;;;;;6.75;2.90;;;;;;;;;;4941855;28;90897;-81
2023/01/22 03:55:24;;;;;;;7.80;2.90;;;;;;;;;;4934745;28;91062;-81
2023/01/22 03:57:51;;;;;;;7.60;2.90;;;;;;;;;;4932449;28;89482;-80
2023/01/22 04:00:19;;;;;;;7.47;3.45;;;;;;;;;;4934641;28;88324;-81
2023/01/22 04:02:48;;;;;;;6.22;2.72;;;;;;;;;;4935205;28;91026;-81
2023/01/22 04:05:19;;;;;;;8.45;3.30;;;;;;;;;;4935579;28;90188;-80
2023/01/22 04:07:47;;;;;;;7.60;3.13;;;;;;;;;;4929024;28;91917;-80
2023/01/22 04:10:15;;;;;;;6.82;2.97;;;;;;;;;;4938231;28;89821;-80
2023/01/22 04:12:43;;;;;;;7.07;2.72;;;;;;;;;;4951812;28;90394;-80
2023/01/22 04:15:12;;;;;;;7.53;2.78;;;;;;;;;;4935430;28;90131;-80
2023/01/22 04:17:40;;;;;;;7.75;3.00;;;;;;;;;;4950596;28;89606;-80
2023/01/22 04:20:16;;;;;;;9.02;3.25;;;;;;;;;;4947735;28;91004;-80
2023/01/22 04:22:56;;;;;;;7.57;2.85;;;;;;;;;;4935170;28;91532;-81
2023/01/22 04:25:22;;;;;;;7.15;3.10;;;;;;;;;;4949861;28;90137;-81
2023/01/22 04:27:49;;;;;;;7.28;2.70;;;;;;;;;;4955510;28;88713;-80
2023/01/22 04:30:17;;;;;;;7.05;3.38;;;;;;;;;;4951749;28;89218;-81
2023/01/22 04:32:46;;;;;;;6.97;3.03;;;;;;;;;;4951497;28;91274;-80
2023/01/22 04:35:34;;;;;;;7.03;3.00;;;;;;;;;;4923529;28;88477;-80
2023/01/22 04:38:01;;;;;;;6.13;2.65;;;;;;;;;;4944383;28;90221;-80
2023/01/22 04:40:27;;;;;;;6.88;2.97;;;;;;;;;;4940344;28;90443;-81
2023/01/22 04:42:54;;;;;;;6.03;2.58;;;;;;;;;;4958557;28;91529;-81
2023/01/22 04:45:22;;;;;;;6.07;2.60;;;;;;;;;;4951743;28;89875;-80
2023/01/22 04:47:48;;;;;;;7.60;3.50;;;;;;;;;;4959048;28;89750;-80
2023/01/22 04:50:19;;;;;;;7.03;2.90;;;;;;;;;;4961835;28;88261;-80
2023/01/22 04:52:48;;;;;;;5.97;2.70;;;;;;;;;;4956679;28;89636;-80
2023/01/22 04:55:15;;;;;;;7.15;2.60;;;;;;;;;;4947959;28;91095;-80
2023/01/22 04:57:53;;;;;;;6.80;2.70;;;;;;;;;;4956605;28;89005;-80
2023/01/22 05:00:19;;;;;;;7.00;2.95;;;;;;;;;;4952992;28;88951;-80
2023/01/22 05:02:46;;;;;;;11.32;3.00;;;;;;;;;;4951487;28;91485;-81
2023/01/22 05:05:12;;;;;;;11.13;3.05;;;;;;;;;;4947028;28;89570;-81
2023/01/22 05:07:39;;;;;;;7.18;2.78;;;;;;;;;;4949830;28;90799;-81
2023/01/22 05:10:06;;;;;;;7.88;2.70;;;;;;;;;;4940907;28;90959;-79
2023/01/22 05:12:33;;;;;;;7.68;3.05;;;;;;;;;;4953895;28;90286;-80
2023/01/22 05:15:00;;;;;;;8.23;2.90;;;;;;;;;;4951647;28;90208;-79
2023/01/22 05:17:29;;;;;;;6.43;2.65;;;;;;;;;;4951331;28;89448;-79
2023/01/22 05:19:55;;;;;;;6.45;2.65;;;;;;;;;;4931986;28;95774;-79
2023/01/22 05:22:22;;;;;;;8.02;2.55;;;;;;;;;;4950434;28;91819;-80
2023/01/22 05:24:48;;;;;;;9.00;2.97;;;;;;;;;;4950462;28;88319;-80
2023/01/22 05:27:15;;;;;;;6.47;2.60;;;;;;;;;;4951419;28;90894;-80
2023/01/22 05:29:58;;;;;;;6.55;2.53;;;;;;;;;;4956049;28;96198;-81
2023/01/22 05:32:37;;;;;;;6.05;2.70;;;;;;;;;;4958196;28;88270;-80
2023/01/22 05:35:04;;;;;;;6.47;2.47;;;;;;;;;;4951360;28;91259;-80
2023/01/22 05:37:33;;;;;;;6.13;2.60;;;;;;;;;;4950454;28;90651;-79
2023/01/22 05:40:00;;;;;;;5.40;2.38;;;;;;;;;;4950757;28;88823;-80
2023/01/22 05:42:30;;;;;;;5.50;2.63;;;;;;;;;;4924102;28;91264;-80
2023/01/22 05:44:57;;;;;;;5.82;2.40;;;;;;;;;;4950484;28;89856;-80
2023/01/22 05:47:24;;;;;;;5.85;2.35;;;;;;;;;;4938986;28;90678;-79
2023/01/22 05:50:06;;;;;;;5.10;2.30;;;;;;;;;;4949954;28;95926;-80
2023/01/22 05:52:34;;;;;;;6.53;2.30;;;;;;;;;;4949943;28;89338;-80
2023/01/22 05:55:00;;;;;;;5.72;2.05;;;;;;;;;;4942665;28;91325;-80
2023/01/22 05:57:34;;;;;;;5.85;2.30;;;;;;;;;;4946110;28;89878;-80
2023/01/22 06:00:00;;;;;;;5.60;2.20;;;;;;;;;;4947994;28;91207;-80
2023/01/22 06:02:28;;;;;;;4.40;2.03;;;;;;;;;;4945489;28;89778;-80
2023/01/22 06:04:55;;;;;;;5.85;2.35;;;;;;;;;;4950774;28;89776;-80
2023/01/22 06:07:24;;;;;;;5.95;2.45;;;;;;;;;;4950132;28;90760;-80
2023/01/22 06:09:51;;;;;;;4.93;2.30;;;;;;;;;;4939238;28;90956;-80
2023/01/22 06:12:18;;;;;;;5.88;2.53;;;;;;;;;;4949558;28;89947;-81
2023/01/22 06:14:45;;;;;;;5.70;2.20;;;;;;;;;;4950010;28;91412;-81
2023/01/22 06:17:11;;;;;;;11.20;2.92;;;;;;;;;;4955277;28;88603;-80
2023/01/22 06:19:43;;;;;;;7.07;2.83;;;;;;;;;;4951170;28;88401;-80
2023/01/22 06:22:11;;;;;;;9.98;2.60;;;;;;;;;;4950383;28;89733;-81
2023/01/22 06:24:44;;;;;;;5.72;2.40;;;;;;;;;;4950104;28;89647;-81
2023/01/22 06:27:12;;;;;;;5.90;2.40;;;;;;;;;;4951013;28;91009;-80
2023/01/22 06:29:49;;;;;;;5.60;2.20;;;;;;;;;;4950639;28;90320;-80
2023/01/22 06:32:15;;;;;;;6.88;2.30;;;;;;;;;;4951298;28;88537;-80
2023/01/22 06:34:42;;;;;;;8.00;2.60;;;;;;;;;;4950203;28;91341;-80
2023/01/22 06:37:09;;;;;;;6.15;2.25;;;;;;;;;;4949404;28;91330;-80
2023/01/22 06:39:37;;;;;;;5.50;2.22;;;;;;;;;;4935914;28;90220;-80
2023/01/22 06:42:23;;;;;;;7.35;2.75;;;;;;;;;;4950671;28;89441;-80
2023/01/22 06:44:50;;;;;;;5.80;2.40;;;;;;;;;;4951870;28;88388;-80
2023/01/22 06:47:22;;;;;;;6.20;2.67;;;;;;;;;;4950419;28;89655;-80
2023/01/22 06:49:48;;;;;;;8.68;2.58;;;;;;;;;;4949405;28;90504;-80
2023/01/22 06:52:15;;;;;;;7.43;2.80;;;;;;;;;;4951443;28;88008;-80
2023/01/22 06:54:42;;;;;;;9.20;2.90;;;;;;;;;;4924582;28;91070;-80
2023/01/22 06:57:08;;;;;;;5.60;2.35;;;;;;;;;;4949869;28;91662;-80
2023/01/22 06:59:37;;;;;;;6.60;2.50;;;;;;;;;;4949197;28;89404;-80
2023/01/22 07:02:03;;;;;;;6.07;2.33;;;;;;;;;;4953857;28;88786;-80
2023/01/22 07:04:30;;;;;;;5.53;2.17;;;;;;;;;;4951451;28;88980;-81
2023/01/22 07:06:56;;;;;;;5.78;2.22;;;;;;;;;;4951513;28;88365;-80
2023/01/22 07:09:22;;;;;;;4.60;2.22;;;;;;;;;;4939503;28;91493;-81
2023/01/22 07:11:49;;;;;;;5.95;2.42;;;;;;;;;;4945463;28;87986;-80
2023/01/22 07:14:16;;;;;;;8.60;2.58;;;;;;;;;;4962480;28;94270;-80
2023/01/22 07:17:01;;;;;;;6.32;2.20;;;;;;;;;;4953647;28;88936;-80
2023/01/22 07:19:27;;;;;;;7.30;2.40;;;;;;;;;;4951948;28;87664;-80
2023/01/22 07:21:53;;;;;;;4.85;2.08;;;;;;;;;;4935346;28;88149;-81
2023/01/22 07:24:20;;;;;;;5.97;2.50;;;;;;;;;;4918303;28;90641;-81
2023/01/22 07:26:48;;;;;;;5.15;2.33;;;;;;;;;;4944759;28;89410;-80
2023/01/22 07:29:14;;;;;;;7.05;2.58;;;;;;;;;;4934964;28;88657;-80
2023/01/22 07:31:41;;;;;;;5.30;2.40;;;;;;;;;;4934749;28;88106;-79
2023/01/22 07:34:08;;;;;;;3.63;1.83;;;;;;;;;;4935650;28;90653;-80
2023/01/22 07:36:34;;;;;;;4.10;2.03;;;;;;;;;;4933533;28;91159;-80
2023/01/22 07:39:04;;;;;;;5.47;2.25;;;;;;;;;;4922045;28;88368;-80
2023/01/22 07:41:31;;;;;;;5.60;2.60;;;;;;;;;;4926481;28;89015;-80
2023/01/22 07:43:59;;;;;;;6.38;2.40;;;;;;;;;;4939514;28;88053;-80
2023/01/22 07:46:26;;;;;;;8.18;2.97;;;;;;;;;;4936522;28;89571;-80
2023/01/22 07:48:52;;;;;;;5.78;2.40;;;;;;;;;;4936113;28;88155;-80
2023/01/22 07:51:19;;;;;;;5.28;2.30;;;;;;;;;;4935394;28;88802;-80
2023/01/22 07:53:46;;;;;;;6.05;2.30;;;;;;;;;;4924509;28;89651;-81
2023/01/22 07:56:13;;;;;;;5.65;2.35;;;;;;;;;;4936170;28;90988;-80
2023/01/22 07:58:40;;;;;;;4.20;1.85;;;;;;;;;;4954328;28;87991;-81
2023/01/22 08:01:06;;;;;;;5.28;2.20;;;;;;;;;;4949564;28;88647;-81
2023/01/22 08:03:33;;;;;;;4.47;2.05;;;;;;;;;;4932881;28;88643;-80
2023/01/22 08:05:59;;;;;;;4.90;2.00;;;;;;;;;;4920645;28;88137;-80
2023/01/22 08:08:26;;;;;;;8.48;1.98;;;;;;;;;;4918164;28;88093;-81
2023/01/22 08:10:56;;;;;;;7.00;2.53;;;;;;;;;;4932491;28;88331;-79
2023/01/22 08:13:23;;;;;;;4.40;1.83;;;;;;;;;;4934037;28;88583;-80
2023/01/22 08:15:49;;;;;;;6.22;2.22;;;;;;;;;;4931851;28;90569;-80
2023/01/22 08:18:16;;;;;;;5.35;2.15;;;;;;;;;;4933715;28;88945;-80
2023/01/22 08:20:45;;;;;;;5.43;2.00;;;;;;;;;;4933457;28;88386;-79
2023/01/22 08:23:11;;;;;;;5.30;2.08;;;;;;;;;;4947824;28;88599;-80
2023/01/22 08:25:38;;;;;;;4.88;1.77;;;;;;;;;;4952940;28;88370;-80
2023/01/22 08:28:05;;;;;;;4.80;1.98;;;;;;;;;;4956800;28;88626;-79
2023/01/22 08:30:32;;;;;;;10.52;2.90;;;;;;;;;;4955245;28;88265;-81
2023/01/22 08:33:10;;;;;;;9.77;2.80;;;;;;;;;;4956369;28;88349;-81
2023/01/22 08:35:37;;;;;;;8.35;2.70;;;;;;;;;;4947807;28;88890;-80
2023/01/22 08:38:04;;;;;;;10.95;3.08;;;;;;;;;;4938429;28;89836;-80
2023/01/22 08:40:30;;;;;;;6.75;3.00;;;;;;;;;;4955036;28;88835;-82
2023/01/22 08:42:56;;;;;;;8.27;3.53;;;;;;;;;;4954233;28;89145;-80
2023/01/22 08:45:23;;;;;;;12.30;2.42;;;;;;;;;;4939621;28;88157;-79
2023/01/22 08:47:54;;;;;;;35.15;3.60;;;;;;;;;;4943795;28;90790;-79
2023/01/22 08:50:20;;;;;;;24.70;3.33;;;;;;;;;;4937059;28;89963;-80
2023/01/22 08:52:47;;;;;;;23.35;3.35;;;;;;;;;;4947033;28;89126;-82
2023/01/22 08:55:13;;;;;;;56.28;4.38;;;;;;;;;;4953873;28;88966;-81
2023/01/22 08:57:40;;;;;;;73.22;5.68;;;;;;;;;;4952019;28;87337;-80
2023/01/22 09:00:07;;;;;;;21.33;3.88;;;;;;;;;;4951573;28;89728;-81
2023/01/22 09:02:34;;;;;;;21.33;2.50;;;;;;;;;;4940629;28;88065;-80
2023/01/22 09:05:00;;;;;;;18.60;2.28;;;;;;;;;;4941079;28;89352;-80
2023/01/22 09:07:26;;;;;;;12.13;1.92;;;;;;;;;;4937284;28;89731;-81
2023/01/22 09:09:53;;;;;;;13.95;1.92;;;;;;;;;;4940414;28;88053;-80
2023/01/22 09:12:19;;;;;;;13.88;1.75;;;;;;;;;;4935489;28;88051;-80
2023/01/22 09:14:46;;;;;;;10.25;1.40;;;;;;;;;;4940807;28;88703;-80
2023/01/22 09:17:12;;;;;;;10.55;1.60;;;;;;;;;;4949084;28;89323;-81
2023/01/22 09:19:39;;;;;;;9.07;1.52;;;;;;;;;;4951730;28;88576;-81
2023/01/22 09:22:06;;;;;;;7.68;1.70;;;;;;;;;;4942360;28;88595;-81
2023/01/22 09:24:32;;;;;;;7.85;1.40;;;;;;;;;;4950183;28;88470;-81
2023/01/22 09:26:59;;;;;;;4.32;1.20;;;;;;;;;;4952926;28;88513;-80
2023/01/22 09:29:25;;;;;;;8.82;1.58;;;;;;;;;;4954183;28;89563;-81
2023/01/22 09:31:52;;;;;;;8.32;1.30;;;;;;;;;;4949850;28;88090;-80
2023/01/22 09:34:19;;;;;;;6.28;1.40;;;;;;;;;;4949275;28;88459;-80
2023/01/22 09:36:45;;;;;;;5.88;1.20;;;;;;;;;;4952363;28;87996;-81
2023/01/22 09:39:12;;;;;;;8.88;1.50;;;;;;;;;;4952347;28;88471;-80
2023/01/22 09:41:40;;;;;;;4.60;1.30;;;;;;;;;;4948407;28;88838;-81
2023/01/22 09:44:18;;;;;;;6.55;1.40;;;;;;;;;;4951736;28;88705;-80
2023/01/22 09:46:47;;;;;;;7.72;1.30;;;;;;;;;;4946473;28;88209;-80
2023/01/22 09:49:18;;;;;;;5.65;1.35;;;;;;;;;;4948287;28;89000;-80
2023/01/22 09:51:50;;;;;;;6.13;1.17;;;;;;;;;;4949621;28;88129;-80
2023/01/22 09:54:17;;;;;;;6.57;1.33;;;;;;;;;;4950657;28;89396;-79
2023/01/22 09:56:45;;;;;;;4.43;1.17;;;;;;;;;;4947523;28;88255;-81
2023/01/22 09:59:29;;;;;;;6.80;1.50;;;;;;;;;;4943663;28;89576;-81
2023/01/22 10:01:59;;;;;;;8.07;1.23;;;;;;;;;;4951443;28;90124;-82
2023/01/22 10:04:30;;;;;;;6.05;1.20;;;;;;;;;;4948509;28;88257;-83
2023/01/22 10:06:59;;;;;;;4.47;1.20;;;;;;;;;;4948195;28;88529;-82
2023/01/22 10:09:29;;;;;;;4.30;1.23;;;;;;;;;;4951522;28;92356;-81
2023/01/22 10:11:57;;;;;;;5.15;1.25;;;;;;;;;;4951864;28;94904;-83
2023/01/22 10:14:26;;;;;;;6.95;1.40;;;;;;;;;;4951666;28;88015;-83
2023/01/22 10:16:54;;;;;;;6.63;1.20;;;;;;;;;;4955455;28;89740;-85
2023/01/22 10:19:26;;;;;;;8.20;1.20;;;;;;;;;;4952513;28;88922;-85
2023/01/22 10:22:01;;;;;;;9.15;1.30;;;;;;;;;;4952730;28;89031;-85
2023/01/22 10:24:29;;;;;;;5.40;1.30;;;;;;;;;;4946717;28;88535;-84
2023/01/22 10:26:57;;;;;;;4.43;1.02;;;;;;;;;;4952638;28;88018;-85
2023/01/22 10:29:26;;;;;;;4.75;1.30;;;;;;;;;;4950769;28;88047;-83
2023/01/22 10:31:54;;;;;;;4.38;1.25;;;;;;;;;;4951844;28;88473;-82
2023/01/22 10:34:26;;;;;;;5.97;1.20;;;;;;;;;;4952283;28;88830;-80
2023/01/22 10:36:53;;;;;;;7.35;1.27;;;;;;;;;;4948338;28;88013;-79
2023/01/22 10:39:19;;;;;;;6.85;1.10;;;;;;;;;;4935022;28;88026;-82
2023/01/22 10:41:46;;;;;;;3.47;0.90;;;;;;;;;;4928983;28;88526;-82
2023/01/22 10:44:20;;;;;;;5.55;1.00;;;;;;;;;;4928538;28;88949;-81
2023/01/22 10:46:48;;;;;;;6.15;1.00;;;;;;;;;;4948179;28;89103;-81
2023/01/22 10:49:16;;;;;;;6.78;1.00;;;;;;;;;;4951550;28;88793;-80
2023/01/22 10:51:48;;;;;;;6.22;1.20;;;;;;;;;;4940945;28;88085;-81
2023/01/22 10:54:22;;;;;;;5.10;1.23;;;;;;;;;;4950016;28;88674;-81
2023/01/22 10:56:49;;;;;;;5.30;1.20;;;;;;;;;;4946618;28;88806;-79
2023/01/22 10:59:18;;;;;;;2.30;0.95;;;;;;;;;;4948623;28;88563;-79
2023/01/22 11:01:47;;;;;;;4.35;0.90;;;;;;;;;;4953804;28;87501;-79
2023/01/22 11:04:42;;;;;;;3.63;1.15;;;;;;;;;;4950826;28;88201;-80
2023/01/22 11:07:14;;;;;;;4.22;1.05;;;;;;;;;;4935968;28;88633;-80
2023/01/22 11:09:45;;;;;;;3.08;0.95;;;;;;;;;;4949724;28;89601;-82
2023/01/22 11:12:18;;;;;;;7.25;1.30;;;;;;;;;;4952051;28;88506;-81
2023/01/22 11:14:45;;;;;;;;;;;;;;;;;;4951079;28;88438;-82
2023/01/22 11:17:24;;;;;;;3.42;1.02;;;;;;;;;;4955246;28;99281;-80
2023/01/22 11:20:01;;;;;;;5.55;0.82;;;;;;;;;;4951843;28;88131;-81
2023/01/22 11:22:32;;;;;;;2.70;0.75;;;;;;;;;;4947674;28;88383;-80
2023/01/22 11:24:58;;;;;;;4.82;1.20;;;;;;;;;;4940438;28;89014;-80
2023/01/22 11:27:48;;;;;;;5.10;0.90;;;;;;;;;;4951652;28;87453;-81
2023/01/22 11:30:24;;;;;;;6.03;0.98;;;;;;;;;;4944289;28;94053;-81
2023/01/22 11:33:07;;;;;;;4.47;0.98;;;;;;;;;;4945777;28;88078;-81
2023/01/22 11:35:43;;;;;;;4.90;0.90;;;;;;;;;;4947777;28;89085;-81
2023/01/22 11:38:18;;;;;;;2.38;0.90;;;;;;;;;;4941258;28;88817;-81
2023/01/22 11:40:58;;;;;;;1.55;0.75;;;;;;;;;;4950637;28;88402;-80
2023/01/22 11:43:31;;;;;;;4.50;0.90;;;;;;;;;;4951002;28;88701;-81
2023/01/22 11:46:12;;;;;;;2.10;0.90;;;;;;;;;;4951048;28;92976;-81
2023/01/22 11:48:39;;;;;;;3.08;1.00;;;;;;;;;;4958110;28;88133;-80
2023/01/22 11:51:06;;;;;;;;;;;;;;;;;;4941372;28;88670;-80
2023/01/22 11:53:51;;;;;;;6.25;1.10;;;;;;;;;;4950241;28;97462;-80
2023/01/22 11:56:20;;;;;;;3.58;1.10;;;;;;;;;;4951336;28;88164;-81
2023/01/22 11:58:54;;;;;;;3.38;0.93;;;;;;;;;;4951757;28;88871;-81
2023/01/22 12:01:48;;;;;;;4.80;1.10;;;;;;;;;;4948902;28;89872;-80
2023/01/22 12:04:24;;;;;;;7.13;1.20;;;;;;;;;;4947304;28;93786;-80
2023/01/22 12:07:10;;;;;;;4.60;1.15;;;;;;;;;;4942312;28;88756;-80
2023/01/22 12:09:40;;;;;;;4.18;1.10;;;;;;;;;;4941621;28;88018;-80
2023/01/22 12:12:09;;;;;;;4.60;1.27;;;;;;;;;;4932119;28;88381;-80
2023/01/22 12:14:35;;;;;;;7.18;1.20;;;;;;;;;;4934158;28;88633;-80
2023/01/22 12:17:13;;;;;;;6.25;1.40;;;;;;;;;;4934843;28;88710;-80
2023/01/22 12:19:48;;;;;;;6.47;1.30;;;;;;;;;;4949378;28;88797;-80
2023/01/22 12:22:36;;;;;;;3.78;1.10;;;;;;;;;;4954090;28;87905;-81
2023/01/22 12:25:21;;;;;;;6.22;1.23;;;;;;;;;;4954210;28;88614;-80
2023/01/22 12:27:51;;;;;;;6.80;1.20;;;;;;;;;;4952270;28;90292;-80
2023/01/22 12:30:21;;;;;;;5.07;1.40;;;;;;;;;;4954177;28;88378;-79
2023/01/22 12:32:53;;;;;;;3.30;1.00;;;;;;;;;;4949694;28;89163;-80
2023/01/22 12:35:21;;;;;;;4.43;1.13;;;;;;;;;;4952931;28;88403;-81
2023/01/22 12:37:47;;;;;;;;;;;;;;;;;;4954280;28;88971;-80
2023/01/22 12:40:28;;;;;;;4.15;1.00;;;;;;;;;;4945470;28;107935;-80
2023/01/22 12:43:02;;;;;;;3.10;1.00;;;;;;;;;;4953274;28;88205;-80
2023/01/22 12:45:28;;;;;;;4.15;1.17;;;;;;;;;;4953192;28;88923;-81
2023/01/22 12:48:03;;;;;;;3.75;1.15;;;;;;;;;;4950210;28;90342;-80
2023/01/22 12:50:29;;;;;;;3.28;1.00;;;;;;;;;;4946749;28;88425;-79
2023/01/22 12:52:57;;;;;;;2.83;1.10;;;;;;;;;;4952434;28;92945;-80
2023/01/22 12:55:41;;;;;;;5.55;1.30;;;;;;;;;;4944377;28;90648;-80
2023/01/22 12:58:23;;;;;;;13.38;1.63;;;;;;;;;;4948987;28;93602;-80
2023/01/22 13:01:04;;;;;;;5.03;1.20;;;;;;;;;;4950827;28;89279;-81
2023/01/22 13:03:31;;;;;;;8.60;1.35;;;;;;;;;;4947487;28;89491;-81
2023/01/22 13:06:00;;;;;;;9.65;1.60;;;;;;;;;;4944607;28;94547;-81
2023/01/22 13:08:34;;;;;;;8.88;1.30;;;;;;;;;;4934657;28;89435;-82
2023/01/22 13:11:05;;;;;;;8.75;1.50;;;;;;;;;;4949877;28;89576;-81
2023/01/22 13:13:35;;;;;;;8.48;1.40;;;;;;;;;;4950606;28;89843;-81
2023/01/22 13:16:06;;;;;;;10.60;1.55;;;;;;;;;;4951694;28;89199;-81
2023/01/22 13:18:34;;;;;;;8.30;1.35;;;;;;;;;;4952336;28;88757;-81
2023/01/22 13:21:01;;;;;;;8.90;1.35;;;;;;;;;;4948761;28;88405;-81
2023/01/22 13:23:32;;;;;;;6.00;1.42;;;;;;;;;;4948383;28;88101;-81
2023/01/22 13:25:59;;;;;;;5.50;1.20;;;;;;;;;;4951131;28;93012;-80
2023/01/22 13:28:27;;;;;;;7.90;1.30;;;;;;;;;;4950288;28;88855;-83
2023/01/22 13:31:00;;;;;;;11.07;1.50;;;;;;;;;;4945852;28;88626;-82
2023/01/22 13:33:27;;;;;;;6.47;1.27;;;;;;;;;;4953452;28;88812;-84
2023/01/22 13:35:54;;;;;;;4.93;1.10;;;;;;;;;;4955180;28;87595;-84
2023/01/22 13:38:22;;;;;;;3.22;1.20;;;;;;;;;;4956643;28;96414;-83
2023/01/22 13:40:52;;;;;;;4.68;1.15;;;;;;;;;;4950429;28;88016;-83
2023/01/22 13:43:21;;;;;;;5.20;1.20;;;;;;;;;;4946483;28;88741;-82
2023/01/22 13:45:49;;;;;;;4.65;1.10;;;;;;;;;;4946694;28;89151;-82
2023/01/22 13:48:17;;;;;;;3.72;1.13;;;;;;;;;;4947494;28;88700;-84
2023/01/22 13:50:51;;;;;;;2.67;1.10;;;;;;;;;;4953373;28;88310;-81
2023/01/22 13:53:21;;;;;;;5.93;1.30;;;;;;;;;;4949938;28;88937;-86
2023/01/22 13:55:48;;;;;;;4.47;1.20;;;;;;;;;;4948112;28;88760;-84
2023/01/22 13:58:31;;;;;;;4.47;1.10;;;;;;;;;;4947434;28;88417;-85
2023/01/22 14:01:29;;;;;;;3.58;1.20;;;;;;;;;;4951961;28;87579;-84
2023/01/22 14:03:59;;;;;;;5.03;1.15;;;;;;;;;;4947966;28;93743;-84
2023/01/22 14:06:26;;;;;;;4.28;1.23;;;;;;;;;;4949849;28;89119;-84
2023/01/22 14:08:54;;;;;;;3.33;1.10;;;;;;;;;;4949117;28;90120;-84
2023/01/22 14:11:23;;;;;;;1.92;1.10;;;;;;;;;;4954193;28;88222;-85
2023/01/22 14:13:50;;;;;;;3.70;1.10;;;;;;;;;;4951246;28;88499;-84
2023/01/22 14:16:16;;;;;;;3.47;1.10;;;;;;;;;;4951354;28;88810;-85
2023/01/22 14:18:46;;;;;;;3.67;1.10;;;;;;;;;;4952042;28;88272;-86
2023/01/22 14:21:13;;;;;;;2.80;1.00;;;;;;;;;;4958208;28;88223;-87
2023/01/22 14:23:41;;;;;;;6.07;1.20;;;;;;;;;;4974827;28;90594;-88
2023/01/22 14:26:08;;;;;;;3.45;1.08;;;;;;;;;;4954185;28;88658;-87
2023/01/22 14:28:34;;;;;;;4.10;1.17;;;;;;;;;;4951473;28;88852;-88
2023/01/22 14:31:01;;;;;;;4.50;1.30;;;;;;;;;;4952084;28;88539;-88
2023/01/22 14:33:34;;;;;;;2.17;1.10;;;;;;;;;;4947513;28;89014;-88
2023/01/22 14:36:00;;;;;;;3.42;1.08;;;;;;;;;;4944775;28;93297;-87
2023/01/22 14:38:27;;;;;;;6.00;1.30;;;;;;;;;;4959875;28;87997;-87
2023/01/22 14:40:56;;;;;;;2.88;1.30;;;;;;;;;;4947205;28;88398;-87
2023/01/22 14:43:22;;;;;;;5.15;1.42;;;;;;;;;;4945622;28;89061;-88
2023/01/22 14:45:50;;;;;;;4.95;1.33;;;;;;;;;;4951287;28;89788;-87
2023/01/22 14:48:18;;;;;;;2.80;1.20;;;;;;;;;;4951160;28;88536;-86
2023/01/22 14:50:44;;;;;;;2.95;1.05;;;;;;;;;;4949131;28;87904;-86
2023/01/22 14:53:11;;;;;;;3.10;1.25;;;;;;;;;;4944273;28;88489;-84
2023/01/22 14:55:41;;;;;;;4.22;1.33;;;;;;;;;;4949165;28;89309;-82
2023/01/22 14:58:11;;;;;;;6.88;1.48;;;;;;;;;;4950302;28;89302;-85
2023/01/22 15:00:37;;;;;;;4.80;1.35;;;;;;;;;;4948807;28;90221;-85
2023/01/22 15:03:04;;;;;;;4.60;1.40;;;;;;;;;;4948360;28;88244;-83
2023/01/22 15:05:30;;;;;;;4.93;1.25;;;;;;;;;;4944383;28;88797;-83